createdAt,value
2022-12-26T00:01:12.389Z,0.14
2022-12-26T00:03:40.784Z,0.14
2022-12-26T00:06:21.522Z,0.13
2022-12-26T00:08:51.832Z,0.12
2022-12-26T00:11:22.944Z,0.07
2022-12-26T00:14:06.104Z,0.04
2022-12-26T00:16:34.826Z,0.02
2022-12-26T00:19:08.880Z,-0.00
2022-12-26T00:21:44.465Z,-0.02
2022-12-26T00:24:15.775Z,-0.01
2022-12-26T00:26:44.055Z,-0.00
2022-12-26T00:29:14.377Z,0.03
2022-12-26T00:31:48.011Z,0.03
2022-12-26T00:34:19.706Z,0.02
2022-12-26T00:36:57.432Z,0.00
2022-12-26T00:40:04.705Z,0.01
2022-12-26T00:42:39.613Z,0.05
2022-12-26T00:45:16.668Z,0.06
2022-12-26T00:47:44.784Z,0.09
2022-12-26T00:50:15.935Z,0.09
2022-12-26T00:52:44.885Z,0.09
2022-12-26T00:55:16.916Z,0.08
2022-12-26T00:57:46.548Z,0.05
2022-12-26T01:00:18.270Z,0.04
2022-12-26T01:02:54.131Z,0.01
2022-12-26T01:05:22.523Z,-0.01
2022-12-26T01:08:20.225Z,-0.07
2022-12-26T01:10:46.741Z,-0.14
2022-12-26T01:13:15.807Z,-0.17
2022-12-26T01:15:54.475Z,-0.18
2022-12-26T01:18:22.518Z,-0.21
2022-12-26T01:20:50.579Z,-0.24
2022-12-26T01:23:18.640Z,-0.29
2022-12-26T01:26:15.372Z,-0.33
2022-12-26T01:28:36.290Z,-0.35
2022-12-26T01:31:06.801Z,-0.38
2022-12-26T01:33:34.991Z,-0.38
2022-12-26T01:36:03.044Z,-0.45
2022-12-26T01:38:32.212Z,-0.52
2022-12-26T01:41:19.960Z,-0.56
2022-12-26T01:44:05.696Z,-0.59
2022-12-26T01:46:46.605Z,-0.62
2022-12-26T01:49:31.494Z,-0.64
2022-12-26T01:52:08.705Z,-0.68
2022-12-26T01:54:43.143Z,-0.68
2022-12-26T01:57:38.062Z,-0.68
2022-12-26T02:00:07.487Z,-0.65
2022-12-26T02:03:01.859Z,-0.65
2022-12-26T02:05:36.058Z,-0.65
2022-12-26T02:08:10.286Z,-0.67
2022-12-26T02:10:57.076Z,-0.67
2022-12-26T02:13:29.419Z,-0.69
2022-12-26T02:15:57.881Z,-0.70
2022-12-26T02:18:27.051Z,-0.71
2022-12-26T02:21:14.431Z,-0.75
2022-12-26T02:24:01.423Z,-0.80
2022-12-26T02:26:49.145Z,-0.84
2022-12-26T02:29:29.307Z,-0.84
2022-12-26T02:32:15.299Z,-0.84
2022-12-26T02:35:16.293Z,-0.89
2022-12-26T02:38:22.531Z,-0.92
2022-12-26T02:41:09.282Z,-0.94
2022-12-26T02:43:47.554Z,-0.99
2022-12-26T02:46:40.821Z,-1.00
2022-12-26T02:49:17.091Z,-1.00
2022-12-26T02:52:24.382Z,-0.99
2022-12-26T02:55:21.022Z,-1.04
2022-12-26T02:58:24.895Z,-1.06
2022-12-26T03:01:34.142Z,-1.02
2022-12-26T03:04:27.488Z,-0.98
2022-12-26T03:07:19.169Z,-0.96
2022-12-26T03:10:08.723Z,-0.94
2022-12-26T03:13:05.082Z,-0.92
2022-12-26T03:15:57.663Z,-0.89
2022-12-26T03:18:58.417Z,-0.86
2022-12-26T03:21:26.415Z,-0.84
2022-12-26T03:23:57.155Z,-0.82
2022-12-26T03:26:41.008Z,-0.82
2022-12-26T03:29:41.990Z,-0.82
2022-12-26T03:32:12.533Z,-0.85
2022-12-26T03:34:44.528Z,-0.87
2022-12-26T03:37:59.590Z,-0.89
2022-12-26T03:41:27.623Z,-0.92
2022-12-26T03:44:53.439Z,-0.93
2022-12-26T03:47:49.799Z,-0.97
2022-12-26T03:51:02.246Z,-1.00
2022-12-26T03:54:03.158Z,-1.01
2022-12-26T03:57:05.000Z,-1.02
2022-12-26T04:00:06.001Z,-1.02
2022-12-26T04:03:03.006Z,-1.00
2022-12-26T04:05:52.079Z,-1.01
2022-12-26T04:08:48.267Z,-1.00
2022-12-26T04:11:37.319Z,-1.01
2022-12-26T04:14:53.573Z,-1.01
2022-12-26T04:17:52.539Z,-1.03
2022-12-26T04:20:34.192Z,-1.05
2022-12-26T04:23:30.217Z,-1.06
2022-12-26T04:26:25.965Z,-1.09
2022-12-26T04:29:12.569Z,-1.10
2022-12-26T04:32:01.451Z,-1.11
2022-12-26T04:35:22.555Z,-1.12
2022-12-26T04:38:11.167Z,-1.15
2022-12-26T04:41:02.219Z,-1.15
2022-12-26T04:43:52.018Z,-1.14
2022-12-26T04:46:23.349Z,-1.15
2022-12-26T04:49:13.589Z,-1.14
2022-12-26T04:51:41.607Z,-1.14
2022-12-26T04:54:09.802Z,-1.13
2022-12-26T04:56:38.844Z,-1.12
2022-12-26T04:59:09.136Z,-1.10
2022-12-26T05:01:55.759Z,-1.07
2022-12-26T05:04:43.634Z,-1.04
2022-12-26T05:07:40.202Z,-1.02
2022-12-26T05:10:15.944Z,-0.98
2022-12-26T05:12:44.013Z,-0.92
2022-12-26T05:15:12.359Z,-0.84
2022-12-26T05:17:58.960Z,-0.74
2022-12-26T05:20:47.360Z,-0.69
2022-12-26T05:23:42.443Z,-0.56
2022-12-26T05:26:36.237Z,-0.48
2022-12-26T05:29:04.622Z,-0.40
2022-12-26T05:31:36.180Z,-0.36
2022-12-26T05:34:17.584Z,-0.31
2022-12-26T05:36:51.887Z,-0.23
2022-12-26T05:39:20.374Z,-0.19
2022-12-26T05:41:48.503Z,-0.12
2022-12-26T05:44:17.182Z,-0.10
2022-12-26T05:46:47.213Z,-0.07
2022-12-26T05:49:16.426Z,-0.01
2022-12-26T05:51:45.251Z,0.05
2022-12-26T05:54:13.517Z,0.11
2022-12-26T05:56:45.869Z,0.15
2022-12-26T05:59:17.375Z,0.16
2022-12-26T06:01:45.541Z,0.19
2022-12-26T06:04:14.928Z,0.23
2022-12-26T06:06:43.050Z,0.27
2022-12-26T06:09:11.054Z,0.34
2022-12-26T06:11:43.809Z,0.39
2022-12-26T06:14:17.258Z,0.48
2022-12-26T06:16:45.436Z,0.52
2022-12-26T06:19:13.450Z,0.56
2022-12-26T06:21:41.599Z,0.61
2022-12-26T06:24:09.666Z,0.68
2022-12-26T06:26:37.939Z,0.71
2022-12-26T06:29:06.000Z,0.73
2022-12-26T06:31:34.472Z,0.73
2022-12-26T06:34:02.754Z,0.71
2022-12-26T06:36:34.293Z,0.74
2022-12-26T06:39:02.660Z,0.74
2022-12-26T06:41:30.907Z,0.79
2022-12-26T06:44:00.058Z,0.81
2022-12-26T06:46:31.189Z,0.80
2022-12-26T06:57:35.565Z,0.93
2022-12-26T07:00:49.239Z,0.98
2022-12-26T07:07:35.335Z,1.11
2022-12-26T07:18:42.387Z,1.40
2022-12-26T07:29:38.720Z,2.04
2022-12-26T07:33:02.373Z,2.22
2022-12-26T07:39:50.302Z,3.72
2022-12-26T07:42:43.492Z,4.55
2022-12-26T07:53:36.032Z,6.93
2022-12-26T08:04:13.038Z,7.78
2022-12-26T08:11:03.593Z,8.76
2022-12-26T08:14:05.673Z,9.46
2022-12-26T08:25:10.163Z,11.72
2022-12-26T08:36:13.271Z,13.39
2022-12-26T08:47:00.233Z,14.42
2022-12-26T09:02:07.006Z,16.05
2022-12-26T09:08:59.728Z,16.35
2022-12-26T09:28:40.911Z,17.43
2022-12-26T09:39:22.956Z,17.99
2022-12-26T09:50:36.050Z,18.72
2022-12-26T10:01:49.212Z,18.90
2022-12-26T10:04:55.049Z,19.21
2022-12-26T10:20:41.011Z,20.37
2022-12-26T10:36:09.060Z,20.57
2022-12-26T10:42:59.675Z,20.42
2022-12-26T11:02:37.804Z,20.07
2022-12-26T11:14:01.322Z,20.38
2022-12-26T11:25:10.012Z,21.55
2022-12-26T11:28:21.137Z,21.76
2022-12-26T11:39:28.795Z,22.03
2022-12-26T11:54:58.983Z,21.88
2022-12-26T12:01:47.438Z,21.64
2022-12-26T12:21:41.220Z,19.84
2022-12-26T13:08:43.658Z,15.86
2022-12-26T13:33:58.831Z,13.65
2022-12-26T13:49:40.050Z,12.88
2022-12-26T13:52:19.463Z,12.57
2022-12-26T13:54:51.888Z,12.38
2022-12-26T13:57:41.276Z,12.22
2022-12-26T14:00:46.186Z,12.02
2022-12-26T14:03:21.408Z,11.80
2022-12-26T14:06:19.847Z,11.57
2022-12-26T14:08:56.890Z,11.30
2022-12-26T14:11:57.100Z,11.06
2022-12-26T14:14:37.064Z,10.87
2022-12-26T14:17:25.715Z,10.70
2022-12-26T14:20:01.209Z,10.53
2022-12-26T14:22:51.847Z,10.34
2022-12-26T14:25:44.784Z,10.18
2022-12-26T14:28:37.850Z,9.98
2022-12-26T14:31:22.397Z,9.74
2022-12-26T14:34:27.577Z,9.53
2022-12-26T14:37:04.442Z,9.34
2022-12-26T14:39:38.444Z,9.20
2022-12-26T14:42:24.958Z,9.08
2022-12-26T14:45:00.214Z,8.97
2022-12-26T14:47:40.934Z,8.82
2022-12-26T14:50:34.963Z,8.68
2022-12-26T14:53:33.956Z,8.55
2022-12-26T14:56:03.432Z,8.41
2022-12-26T14:58:42.832Z,8.27
2022-12-26T15:01:18.589Z,8.16
2022-12-26T15:04:26.425Z,8.08
2022-12-26T15:07:39.852Z,7.98
2022-12-26T15:10:43.488Z,7.88
2022-12-26T15:13:38.054Z,7.80
2022-12-26T15:16:38.367Z,7.70
2022-12-26T15:19:29.484Z,7.60
2022-12-26T15:22:37.739Z,7.51
2022-12-26T15:29:52.997Z,7.27
2022-12-26T15:32:41.964Z,7.21
2022-12-26T15:35:36.518Z,7.16
2022-12-26T15:38:42.740Z,7.08
2022-12-26T15:41:32.034Z,6.97
2022-12-26T15:44:16.340Z,6.90
2022-12-26T15:47:24.239Z,6.84
2022-12-26T15:49:58.045Z,6.79
2022-12-26T15:52:58.723Z,6.75
2022-12-26T15:55:52.190Z,6.70
2022-12-26T15:59:19.676Z,6.65
2022-12-26T16:01:55.557Z,6.59
2022-12-26T16:08:46.237Z,6.47
2022-12-26T16:12:04.526Z,6.40
2022-12-26T16:15:29.702Z,6.33
2022-12-26T16:18:39.834Z,6.25
2022-12-26T16:21:32.205Z,6.19
2022-12-26T16:24:05.814Z,6.13
2022-12-26T16:26:44.826Z,6.06
2022-12-26T16:29:21.337Z,6.00
2022-12-26T16:31:49.533Z,5.92
2022-12-26T16:34:21.807Z,5.84
2022-12-26T16:36:53.223Z,5.71
2022-12-26T16:39:23.652Z,5.59
2022-12-26T16:42:17.055Z,5.49
2022-12-26T16:44:49.042Z,5.37
2022-12-26T16:47:36.924Z,5.24
2022-12-26T16:50:18.165Z,5.14
2022-12-26T16:53:16.458Z,5.04
2022-12-26T16:55:52.573Z,4.95
2022-12-26T16:58:38.963Z,4.89
2022-12-26T17:01:19.707Z,4.81
2022-12-26T17:04:18.926Z,4.73
2022-12-26T17:07:27.966Z,4.66
2022-12-26T17:10:23.855Z,4.61
2022-12-26T17:13:20.028Z,4.54
2022-12-26T17:16:03.486Z,4.44
2022-12-26T17:21:40.001Z,4.21
2022-12-26T17:24:21.437Z,4.12
2022-12-26T17:27:32.324Z,4.07
2022-12-26T17:30:31.092Z,4.01
2022-12-26T17:33:03.962Z,3.99
2022-12-26T17:36:25.399Z,3.96
2022-12-26T17:38:30.055Z,3.87
2022-12-26T17:41:06.886Z,3.77
2022-12-26T17:43:47.807Z,3.67
2022-12-26T17:46:23.142Z,3.61
2022-12-26T17:48:58.097Z,3.59
2022-12-26T17:51:46.219Z,3.52
2022-12-26T17:54:26.166Z,3.46
2022-12-26T18:00:31.498Z,3.35
2022-12-26T18:03:39.749Z,3.31
2022-12-26T18:06:47.485Z,3.26
2022-12-26T18:09:40.772Z,3.21
2022-12-26T18:17:22.002Z,3.06
2022-12-26T18:19:52.416Z,3.01
2022-12-26T18:22:32.253Z,3.00
2022-12-26T18:29:19.174Z,2.91
2022-12-26T18:31:59.039Z,2.88
2022-12-26T18:35:17.267Z,2.83
2022-12-26T18:38:00.909Z,2.78
2022-12-26T18:49:48.342Z,2.75
2022-12-26T19:09:23.961Z,2.60
2022-12-26T19:20:28.128Z,2.46
2022-12-26T19:31:28.915Z,2.39
2022-12-26T19:42:20.074Z,2.30
2022-12-26T19:57:24.655Z,2.07
2022-12-26T20:04:11.165Z,2.03
2022-12-26T20:07:20.026Z,2.00
2022-12-26T20:14:11.608Z,1.96
2022-12-26T20:24:55.721Z,1.91
2022-12-26T20:28:04.215Z,1.90
2022-12-26T20:34:51.074Z,1.94
2022-12-26T20:37:59.386Z,1.97
2022-12-26T20:44:45.546Z,1.93
2022-12-26T20:47:44.455Z,1.91
2022-12-26T20:58:52.205Z,1.76
2022-12-26T21:09:52.372Z,1.66
2022-12-26T21:25:14.696Z,1.58
2022-12-26T21:28:16.871Z,1.59
2022-12-26T21:35:07.525Z,1.58
2022-12-26T21:38:09.602Z,1.54
2022-12-26T21:44:59.614Z,1.46
2022-12-26T22:00:09.316Z,1.29
2022-12-26T22:14:33.927Z,1.06
2022-12-26T22:21:25.243Z,1.02
2022-12-26T22:24:10.635Z,0.99
2022-12-26T22:30:58.836Z,0.96
2022-12-26T22:34:05.788Z,0.95
2022-12-26T22:40:57.765Z,0.91
2022-12-26T22:51:44.179Z,0.81
2022-12-26T22:54:47.452Z,0.79
2022-12-26T23:10:30.016Z,0.79
2022-12-26T23:25:31.573Z,0.71
2022-12-26T23:32:19.220Z,0.68
2022-12-26T23:43:24.573Z,0.64
2022-12-26T23:58:29.724Z,0.62
